createdAt,value
2017-08-27T00:02:21.945Z,28.70
2017-08-27T00:04:49.682Z,28.70
2017-08-27T00:07:17.477Z,28.70
2017-08-27T00:09:45.292Z,28.60
2017-08-27T00:12:13.082Z,28.60
2017-08-27T00:14:40.829Z,28.60
2017-08-27T00:17:08.577Z,28.60
2017-08-27T00:19:36.291Z,28.60
2017-08-27T00:22:04.057Z,28.70
2017-08-27T00:24:31.849Z,28.60
2017-08-27T00:26:59.642Z,28.60
2017-08-27T00:29:27.439Z,28.60
2017-08-27T00:31:55.231Z,28.60
2017-08-27T00:34:22.956Z,28.70
2017-08-27T00:36:50.753Z,28.60
2017-08-27T00:39:18.611Z,28.60
2017-08-27T00:41:46.398Z,28.60
2017-08-27T00:44:14.125Z,28.60
2017-08-27T00:46:41.843Z,28.60
2017-08-27T00:49:09.573Z,28.60
2017-08-27T00:51:37.310Z,28.50
2017-08-27T00:54:05.195Z,28.50
2017-08-27T00:56:32.932Z,28.50
2017-08-27T00:59:00.643Z,28.50
2017-08-27T01:01:28.415Z,28.50
2017-08-27T01:03:57.080Z,28.50
2017-08-27T01:06:24.850Z,28.50
2017-08-27T01:08:52.593Z,28.50
2017-08-27T01:11:20.368Z,28.50
2017-08-27T01:13:48.142Z,28.50
2017-08-27T01:16:15.961Z,28.50
2017-08-27T01:18:43.684Z,28.50
2017-08-27T01:21:11.509Z,28.40
2017-08-27T01:23:39.355Z,28.40
2017-08-27T01:26:07.152Z,28.40
2017-08-27T01:28:34.872Z,28.40
2017-08-27T01:31:02.621Z,28.40
2017-08-27T01:33:30.345Z,28.40
2017-08-27T01:35:58.154Z,28.30
2017-08-27T01:38:25.907Z,28.30
2017-08-27T01:40:53.642Z,28.30
2017-08-27T01:43:21.420Z,28.30
2017-08-27T01:45:49.247Z,28.30
2017-08-27T01:48:17.036Z,28.30
2017-08-27T01:50:44.844Z,28.30
2017-08-27T01:53:12.578Z,28.30
2017-08-27T01:55:40.313Z,28.20
2017-08-27T01:58:08.085Z,28.20
2017-08-27T02:00:35.889Z,28.10
2017-08-27T02:03:03.672Z,28.00
2017-08-27T02:05:31.394Z,28.00
2017-08-27T02:07:59.194Z,28.00
2017-08-27T02:10:26.995Z,27.50
2017-08-27T02:12:54.787Z,27.40
2017-08-27T02:15:22.605Z,27.40
2017-08-27T02:17:50.400Z,27.50
2017-08-27T02:20:18.126Z,27.40
2017-08-27T02:22:45.913Z,27.20
2017-08-27T02:25:13.637Z,27.10
2017-08-27T02:27:41.438Z,26.90
2017-08-27T02:30:09.255Z,26.60
2017-08-27T02:32:37.063Z,26.60
2017-08-27T02:35:04.785Z,26.60
2017-08-27T02:37:32.527Z,26.70
2017-08-27T02:40:00.239Z,26.70
2017-08-27T02:42:27.983Z,26.70
2017-08-27T02:44:55.732Z,26.80
2017-08-27T02:47:23.512Z,26.70
2017-08-27T02:49:51.241Z,26.60
2017-08-27T02:52:19.029Z,26.50
2017-08-27T02:54:46.815Z,26.60
2017-08-27T02:57:14.547Z,26.80
2017-08-27T02:59:42.281Z,26.90
2017-08-27T03:02:10.076Z,26.90
2017-08-27T03:04:37.847Z,27.00
2017-08-27T03:07:05.632Z,27.00
2017-08-27T03:09:33.408Z,27.00
2017-08-27T03:12:01.215Z,27.10
2017-08-27T03:14:29.008Z,27.10
2017-08-27T03:16:56.817Z,27.10
2017-08-27T03:19:24.537Z,27.10
2017-08-27T03:21:52.256Z,27.20
2017-08-27T03:24:19.980Z,27.20
2017-08-27T03:26:47.707Z,27.20
2017-08-27T03:29:15.503Z,27.10
2017-08-27T03:31:43.209Z,27.10
2017-08-27T03:34:10.993Z,27.20
2017-08-27T03:36:38.766Z,27.20
2017-08-27T03:39:06.531Z,27.20
2017-08-27T03:41:34.260Z,27.10
2017-08-27T03:44:01.996Z,27.10
2017-08-27T03:46:29.714Z,27.10
2017-08-27T03:48:57.491Z,27.10
2017-08-27T03:51:25.280Z,27.10
2017-08-27T03:53:53.002Z,27.10
2017-08-27T03:56:20.778Z,27.00
2017-08-27T03:58:48.629Z,27.00
2017-08-27T04:01:16.418Z,27.00
2017-08-27T04:03:44.142Z,27.00
2017-08-27T04:06:11.864Z,26.90
2017-08-27T04:08:39.586Z,26.90
2017-08-27T04:11:07.358Z,27.00
2017-08-27T04:13:35.171Z,27.00
2017-08-27T04:16:02.903Z,27.00
2017-08-27T04:18:30.697Z,26.90
2017-08-27T04:20:58.495Z,26.90
2017-08-27T04:23:26.243Z,27.00
2017-08-27T04:25:53.954Z,26.90
2017-08-27T04:28:21.741Z,26.80
2017-08-27T04:30:49.502Z,26.80
2017-08-27T04:33:17.292Z,26.80
2017-08-27T04:35:45.155Z,26.80
2017-08-27T04:38:12.877Z,26.80
2017-08-27T04:40:40.651Z,26.80
2017-08-27T04:43:08.454Z,26.80
2017-08-27T04:45:36.252Z,26.70
2017-08-27T04:48:03.976Z,26.70
2017-08-27T04:50:31.725Z,26.60
2017-08-27T04:52:59.494Z,26.80
2017-08-27T04:55:27.279Z,26.70
2017-08-27T04:57:55.021Z,26.70
2017-08-27T05:00:22.762Z,26.60
2017-08-27T05:02:50.550Z,26.60
2017-08-27T05:05:18.290Z,26.70
2017-08-27T05:07:46.069Z,26.60
2017-08-27T05:10:13.858Z,26.70
2017-08-27T05:12:41.702Z,26.70
2017-08-27T05:15:09.429Z,26.70
2017-08-27T05:17:37.157Z,26.50
2017-08-27T05:20:04.966Z,26.50
2017-08-27T05:22:32.744Z,26.60
2017-08-27T05:25:00.463Z,26.70
2017-08-27T05:27:28.208Z,26.70
2017-08-27T05:29:56.011Z,26.50
2017-08-27T05:32:23.730Z,26.70
2017-08-27T05:34:51.509Z,26.80
2017-08-27T05:37:19.234Z,26.70
2017-08-27T05:39:47.012Z,26.70
2017-08-27T05:42:14.737Z,26.70
2017-08-27T05:44:42.517Z,26.70
2017-08-27T05:47:10.231Z,26.70
2017-08-27T05:49:37.964Z,26.70
2017-08-27T05:52:05.697Z,26.60
2017-08-27T05:54:33.413Z,26.70
2017-08-27T05:57:01.161Z,26.80
2017-08-27T05:59:28.879Z,26.80
2017-08-27T06:01:56.595Z,26.80
2017-08-27T06:04:24.409Z,26.90
2017-08-27T06:06:52.192Z,26.90
2017-08-27T06:09:19.921Z,27.00
2017-08-27T06:11:47.720Z,26.90
2017-08-27T06:14:15.456Z,26.90
2017-08-27T06:16:43.231Z,27.00
2017-08-27T06:19:11.823Z,27.00
2017-08-27T06:21:39.616Z,27.00
2017-08-27T06:24:07.347Z,27.00
2017-08-27T06:26:35.156Z,27.00
2017-08-27T06:29:02.950Z,27.00
2017-08-27T06:31:30.669Z,27.10
2017-08-27T06:33:58.413Z,27.10
2017-08-27T06:36:26.155Z,26.90
2017-08-27T06:38:53.875Z,26.90
2017-08-27T06:41:21.707Z,27.00
2017-08-27T06:43:49.434Z,27.00
2017-08-27T06:46:17.213Z,27.00
2017-08-27T06:48:45.077Z,27.10
2017-08-27T06:51:12.787Z,27.20
2017-08-27T06:53:40.556Z,27.20
2017-08-27T06:56:08.335Z,27.20
2017-08-27T06:58:36.112Z,27.30
2017-08-27T07:01:03.838Z,27.30
2017-08-27T07:03:31.573Z,27.40
2017-08-27T07:05:59.299Z,27.40
2017-08-27T07:08:27.028Z,27.50
2017-08-27T07:10:54.756Z,27.50
2017-08-27T07:13:22.543Z,27.50
2017-08-27T07:15:50.318Z,27.40
2017-08-27T07:18:18.156Z,27.50
2017-08-27T07:20:45.933Z,27.50
2017-08-27T07:23:13.653Z,27.50
2017-08-27T07:25:41.469Z,27.50
2017-08-27T07:28:09.224Z,27.60
2017-08-27T07:30:37.010Z,27.70
2017-08-27T07:33:04.831Z,27.80
2017-08-27T07:35:32.568Z,27.90
2017-08-27T07:38:00.352Z,27.90
2017-08-27T07:40:28.168Z,28.00
2017-08-27T07:42:55.907Z,28.00
2017-08-27T07:45:23.697Z,28.00
2017-08-27T07:47:51.505Z,28.10
2017-08-27T07:50:19.234Z,28.20
2017-08-27T07:52:46.956Z,28.20
2017-08-27T07:55:14.765Z,28.20
2017-08-27T07:57:42.540Z,28.20
2017-08-27T08:00:10.274Z,28.20
2017-08-27T08:02:38.018Z,28.20
2017-08-27T08:05:05.741Z,28.20
2017-08-27T08:07:33.542Z,28.30
2017-08-27T08:10:01.347Z,28.30
2017-08-27T08:12:29.139Z,28.30
2017-08-27T08:14:56.932Z,28.30
2017-08-27T08:17:24.725Z,28.40
2017-08-27T08:19:52.452Z,28.50
2017-08-27T08:22:20.173Z,28.50
2017-08-27T08:24:47.982Z,28.50
2017-08-27T08:27:15.702Z,28.50
2017-08-27T08:29:43.483Z,28.50
2017-08-27T08:32:11.269Z,28.60
2017-08-27T08:34:39.016Z,28.60
2017-08-27T08:37:06.796Z,28.60
2017-08-27T08:39:34.615Z,28.70
2017-08-27T08:42:02.405Z,28.70
2017-08-27T08:44:30.206Z,28.70
2017-08-27T08:46:58.011Z,28.70
2017-08-27T08:49:25.796Z,28.70
2017-08-27T08:51:53.522Z,28.80
2017-08-27T08:54:21.284Z,28.80
2017-08-27T08:56:49.018Z,28.80
2017-08-27T08:59:16.799Z,28.80
2017-08-27T09:01:44.620Z,28.90
2017-08-27T09:04:12.419Z,28.90
2017-08-27T09:06:40.159Z,28.90
2017-08-27T09:09:07.971Z,28.90
2017-08-27T09:11:35.688Z,29.00
2017-08-27T09:14:03.418Z,29.10
2017-08-27T09:16:31.323Z,29.10
2017-08-27T09:18:59.102Z,29.00
2017-08-27T09:21:26.877Z,29.00
2017-08-27T09:23:54.636Z,29.00
2017-08-27T09:26:22.412Z,29.00
2017-08-27T09:28:50.205Z,29.10
2017-08-27T09:31:18.031Z,29.10
2017-08-27T09:33:45.830Z,29.10
2017-08-27T09:36:13.619Z,29.10
2017-08-27T09:38:41.343Z,29.10
2017-08-27T09:41:09.064Z,29.20
2017-08-27T09:43:36.798Z,29.20
2017-08-27T09:46:04.612Z,29.10
2017-08-27T09:48:32.368Z,29.20
2017-08-27T09:51:00.173Z,29.20
2017-08-27T09:53:27.919Z,29.20
2017-08-27T09:55:55.711Z,29.20
2017-08-27T09:58:23.460Z,29.20
2017-08-27T10:00:51.204Z,29.30
2017-08-27T10:03:18.926Z,29.60
2017-08-27T10:05:46.743Z,29.50
2017-08-27T10:08:14.483Z,29.50
2017-08-27T10:10:42.255Z,29.50
2017-08-27T10:13:10.036Z,29.40
2017-08-27T10:15:37.778Z,29.50
2017-08-27T10:18:05.497Z,29.70
2017-08-27T10:20:33.294Z,29.60
2017-08-27T10:23:01.074Z,29.60
2017-08-27T10:25:28.802Z,29.70
2017-08-27T10:27:56.594Z,29.80
2017-08-27T10:30:24.337Z,29.70
2017-08-27T10:32:52.135Z,29.70
2017-08-27T10:35:19.862Z,29.70
2017-08-27T10:37:47.662Z,29.60
2017-08-27T10:40:15.400Z,29.60
2017-08-27T10:42:43.131Z,29.50
2017-08-27T10:45:10.908Z,29.80
2017-08-27T10:47:38.637Z,29.80
2017-08-27T10:50:06.357Z,29.70
2017-08-27T10:52:34.170Z,29.60
2017-08-27T10:55:01.944Z,30.00
2017-08-27T10:57:29.724Z,30.10
2017-08-27T10:59:57.607Z,30.20
2017-08-27T11:02:25.342Z,30.00
2017-08-27T11:04:53.075Z,29.90
2017-08-27T11:07:20.860Z,30.00
2017-08-27T11:09:48.676Z,29.90
2017-08-27T11:12:16.450Z,29.90
2017-08-27T11:14:44.196Z,29.90
2017-08-27T11:17:11.966Z,30.30
2017-08-27T11:19:39.693Z,30.20
2017-08-27T11:22:07.515Z,29.90
2017-08-27T11:24:35.250Z,29.80
2017-08-27T11:27:02.980Z,29.90
2017-08-27T11:29:30.796Z,29.80
2017-08-27T11:31:58.521Z,29.60
2017-08-27T11:34:26.288Z,29.50
2017-08-27T11:36:54.159Z,29.30
2017-08-27T11:39:21.950Z,29.30
2017-08-27T11:41:49.720Z,29.40
2017-08-27T11:44:17.542Z,29.70
2017-08-27T11:46:45.284Z,29.90
2017-08-27T11:49:13.013Z,30.00
2017-08-27T11:51:40.739Z,30.00
2017-08-27T11:54:08.487Z,29.80
2017-08-27T11:56:36.279Z,29.60
2017-08-27T11:59:04.013Z,29.70
2017-08-27T12:01:31.738Z,29.70
2017-08-27T12:03:59.460Z,29.70
2017-08-27T12:06:27.210Z,29.70
2017-08-27T12:08:54.980Z,29.60
2017-08-27T12:11:22.711Z,29.50
2017-08-27T12:13:50.517Z,29.60
2017-08-27T12:16:18.282Z,30.10
2017-08-27T12:18:46.062Z,30.10
2017-08-27T12:21:13.908Z,30.60
2017-08-27T12:23:41.675Z,30.50
2017-08-27T12:26:09.392Z,30.30
2017-08-27T12:28:37.116Z,30.00
2017-08-27T12:31:04.913Z,29.80
2017-08-27T12:33:32.710Z,30.40
2017-08-27T12:36:00.577Z,30.90
2017-08-27T12:38:28.292Z,30.80
2017-08-27T12:40:56.008Z,30.50
2017-08-27T12:43:23.754Z,30.10
2017-08-27T12:45:51.489Z,29.80
2017-08-27T12:48:19.256Z,29.90
2017-08-27T12:50:47.046Z,29.70
2017-08-27T12:53:14.863Z,29.70
2017-08-27T12:55:42.601Z,29.70
2017-08-27T12:58:10.336Z,29.60
2017-08-27T13:00:38.108Z,29.70
2017-08-27T13:03:05.891Z,30.20
2017-08-27T13:05:33.634Z,30.10
2017-08-27T13:08:01.365Z,30.00
2017-08-27T13:10:29.170Z,30.30
2017-08-27T13:12:56.965Z,30.30
2017-08-27T13:15:24.696Z,29.90
2017-08-27T13:17:52.431Z,29.80
2017-08-27T13:20:20.245Z,30.10
2017-08-27T13:22:48.022Z,30.30
2017-08-27T13:25:15.755Z,30.40
2017-08-27T13:27:43.505Z,30.40
2017-08-27T13:30:11.226Z,30.60
2017-08-27T13:32:39.012Z,30.50
2017-08-27T13:35:06.755Z,30.50
2017-08-27T13:37:34.523Z,30.30
2017-08-27T13:40:02.303Z,30.10
2017-08-27T13:42:30.093Z,30.10
2017-08-27T13:44:57.873Z,30.00
2017-08-27T13:47:25.600Z,30.80
2017-08-27T13:49:53.331Z,30.80
2017-08-27T13:52:21.049Z,31.10
2017-08-27T13:54:48.836Z,32.10
2017-08-27T13:57:16.569Z,32.10
2017-08-27T13:59:44.302Z,31.90
2017-08-27T14:02:12.015Z,31.30
2017-08-27T14:04:39.862Z,30.80
2017-08-27T14:07:07.654Z,30.90
2017-08-27T14:09:35.426Z,31.00
2017-08-27T14:12:03.330Z,31.60
2017-08-27T14:14:31.072Z,31.50
2017-08-27T14:16:58.806Z,31.60
2017-08-27T14:19:26.671Z,32.70
2017-08-27T14:21:54.382Z,32.50
2017-08-27T14:24:22.175Z,31.90
2017-08-27T14:26:49.972Z,31.50
2017-08-27T14:29:17.716Z,31.40
2017-08-27T14:31:45.446Z,31.60
2017-08-27T14:34:13.238Z,31.50
2017-08-27T14:36:41.018Z,31.90
2017-08-27T14:39:08.797Z,31.70
2017-08-27T14:41:36.527Z,31.50
2017-08-27T14:44:04.331Z,31.60
2017-08-27T14:46:32.106Z,31.40
2017-08-27T14:48:59.897Z,30.90
2017-08-27T14:51:27.688Z,30.80
2017-08-27T14:53:55.470Z,30.50
2017-08-27T14:56:23.217Z,30.30
2017-08-27T14:58:50.957Z,30.20
2017-08-27T15:01:18.760Z,30.10
2017-08-27T15:03:46.483Z,30.10
2017-08-27T15:06:14.194Z,30.10
2017-08-27T15:08:41.916Z,30.10
2017-08-27T15:11:09.731Z,30.00
2017-08-27T15:13:37.531Z,30.00
2017-08-27T15:16:05.324Z,29.90
2017-08-27T15:18:33.073Z,29.90
2017-08-27T15:21:00.799Z,30.00
2017-08-27T15:23:28.525Z,30.00
2017-08-27T15:25:56.411Z,29.90
2017-08-27T15:28:24.136Z,30.00
2017-08-27T15:30:51.868Z,30.00
2017-08-27T15:33:19.745Z,30.00
2017-08-27T15:35:47.515Z,30.00
2017-08-27T15:38:15.246Z,30.00
2017-08-27T15:40:43.040Z,30.00
2017-08-27T15:43:10.766Z,30.40
2017-08-27T15:45:38.548Z,30.70
2017-08-27T15:48:06.323Z,30.50
2017-08-27T15:50:34.101Z,30.40
2017-08-27T15:53:01.880Z,30.30
2017-08-27T15:55:29.763Z,30.20
2017-08-27T15:57:57.536Z,30.10
2017-08-27T16:00:25.320Z,30.10
2017-08-27T16:02:53.177Z,30.10
2017-08-27T16:05:20.957Z,30.20
2017-08-27T16:07:48.736Z,30.10
2017-08-27T16:10:16.620Z,30.10
2017-08-27T16:12:44.391Z,30.00
2017-08-27T16:15:12.165Z,30.00
2017-08-27T16:17:39.900Z,29.90
2017-08-27T16:20:07.677Z,29.90
2017-08-27T16:22:35.456Z,29.90
2017-08-27T16:25:03.292Z,29.90
2017-08-27T16:27:31.020Z,29.90
2017-08-27T16:29:58.786Z,29.90
2017-08-27T16:32:26.583Z,29.90
2017-08-27T16:34:54.315Z,29.90
2017-08-27T16:37:22.102Z,29.90
2017-08-27T16:39:49.841Z,29.90
2017-08-27T16:42:17.645Z,30.00
2017-08-27T16:44:45.418Z,30.00
2017-08-27T16:47:25.120Z,30.00
2017-08-27T16:49:52.866Z,29.90
2017-08-27T16:52:20.595Z,30.00
2017-08-27T16:54:48.459Z,30.00
2017-08-27T16:57:16.228Z,30.00
2017-08-27T16:59:43.940Z,30.00
2017-08-27T17:02:11.691Z,30.10
2017-08-27T17:04:39.472Z,30.10
2017-08-27T17:07:07.188Z,30.10
2017-08-27T17:09:34.975Z,30.10
2017-08-27T17:12:02.718Z,30.10
2017-08-27T17:14:30.458Z,30.10
2017-08-27T17:16:58.328Z,30.10
2017-08-27T17:19:26.065Z,30.10
2017-08-27T17:21:53.848Z,30.10
2017-08-27T17:24:21.612Z,30.10
2017-08-27T17:26:49.419Z,30.10
2017-08-27T17:29:17.204Z,30.10
2017-08-27T17:31:44.937Z,30.10
2017-08-27T17:34:12.678Z,30.20
2017-08-27T17:36:40.481Z,30.10
2017-08-27T17:39:08.217Z,30.20
2017-08-27T17:41:35.940Z,30.20
2017-08-27T17:44:03.656Z,30.20
2017-08-27T17:46:31.480Z,30.30
2017-08-27T17:48:59.248Z,30.30
2017-08-27T17:51:26.961Z,30.30
2017-08-27T17:53:54.767Z,30.30
2017-08-27T17:56:22.558Z,30.30
2017-08-27T17:58:50.369Z,30.30
2017-08-27T18:01:18.164Z,30.30
2017-08-27T18:03:45.889Z,30.30
2017-08-27T18:06:13.669Z,30.30
2017-08-27T18:08:41.454Z,30.30
2017-08-27T18:11:09.247Z,30.30
2017-08-27T18:13:37.014Z,30.30
2017-08-27T18:16:04.819Z,30.30
2017-08-27T18:18:32.615Z,30.40
2017-08-27T18:21:00.332Z,30.40
2017-08-27T18:23:28.126Z,30.40
2017-08-27T18:25:55.899Z,30.40
2017-08-27T18:28:23.620Z,30.50
2017-08-27T18:30:51.421Z,30.40
2017-08-27T18:33:19.167Z,30.50
2017-08-27T18:35:46.957Z,30.50
2017-08-27T18:38:14.785Z,30.50
2017-08-27T18:40:42.509Z,30.70
2017-08-27T18:43:10.279Z,30.60
2017-08-27T18:45:38.072Z,30.60
2017-08-27T18:48:05.853Z,30.60
2017-08-27T18:50:33.581Z,30.60
2017-08-27T18:53:01.360Z,30.50
2017-08-27T18:55:29.094Z,30.50
2017-08-27T18:57:56.873Z,30.60
2017-08-27T19:00:24.626Z,30.60
2017-08-27T19:02:57.949Z,30.60
2017-08-27T19:05:25.770Z,30.70
2017-08-27T19:07:53.552Z,30.70
2017-08-27T19:10:21.360Z,30.70
2017-08-27T19:12:49.104Z,30.60
2017-08-27T19:15:16.887Z,30.60
2017-08-27T19:17:44.679Z,30.70
2017-08-27T19:20:12.418Z,30.60
2017-08-27T19:22:40.215Z,30.60
2017-08-27T19:25:07.997Z,30.60
2017-08-27T19:27:35.788Z,30.60
2017-08-27T19:30:03.514Z,30.60
2017-08-27T19:32:31.254Z,30.60
2017-08-27T19:34:59.143Z,30.60
2017-08-27T19:37:26.874Z,30.60
2017-08-27T19:39:54.666Z,30.70
2017-08-27T19:42:22.465Z,30.70
2017-08-27T19:44:50.287Z,30.80
2017-08-27T19:47:18.019Z,30.80
2017-08-27T19:49:45.851Z,30.90
2017-08-27T19:52:13.632Z,31.00
2017-08-27T19:54:41.469Z,31.00
2017-08-27T19:57:09.342Z,31.10
2017-08-27T19:59:37.148Z,31.20
2017-08-27T20:02:04.936Z,31.30
2017-08-27T20:04:32.742Z,31.40
2017-08-27T20:07:00.468Z,31.50
2017-08-27T20:09:28.178Z,31.50
2017-08-27T20:11:55.998Z,31.50
2017-08-27T20:14:23.716Z,31.40
2017-08-27T20:16:51.500Z,31.30
2017-08-27T20:19:19.219Z,31.20
2017-08-27T20:21:47.049Z,31.30
2017-08-27T20:24:14.968Z,31.40
2017-08-27T20:26:42.795Z,31.50
2017-08-27T20:29:10.526Z,31.50
2017-08-27T20:31:38.294Z,31.60
2017-08-27T20:34:06.043Z,31.60
2017-08-27T20:36:33.767Z,31.70
2017-08-27T20:39:01.479Z,31.70
2017-08-27T20:41:29.260Z,31.70
2017-08-27T20:43:57.041Z,31.70
2017-08-27T20:46:24.784Z,31.60
2017-08-27T20:48:52.575Z,31.60
2017-08-27T20:51:20.296Z,31.60
2017-08-27T20:53:48.021Z,31.60
2017-08-27T20:56:15.840Z,31.50
2017-08-27T20:58:43.625Z,31.50
2017-08-27T21:01:11.347Z,31.50
2017-08-27T21:03:39.139Z,31.50
2017-08-27T21:06:06.911Z,31.50
2017-08-27T21:08:34.684Z,31.50
2017-08-27T21:11:02.483Z,31.40
2017-08-27T21:13:30.267Z,31.40
2017-08-27T21:15:58.062Z,31.40
2017-08-27T21:18:25.881Z,31.40
2017-08-27T21:20:53.675Z,31.40
2017-08-27T21:23:21.457Z,31.40
2017-08-27T21:25:49.173Z,31.30
2017-08-27T21:28:16.893Z,31.30
2017-08-27T21:30:44.667Z,31.30
2017-08-27T21:33:12.401Z,31.30
2017-08-27T21:35:40.171Z,31.20
2017-08-27T21:38:07.901Z,31.20
2017-08-27T21:40:35.637Z,31.20
2017-08-27T21:43:03.349Z,31.10
2017-08-27T21:45:31.068Z,31.10
2017-08-27T21:47:58.890Z,31.10
2017-08-27T21:50:26.615Z,31.10
2017-08-27T21:52:54.409Z,31.10
2017-08-27T21:55:22.179Z,31.00
2017-08-27T21:57:49.949Z,31.00
2017-08-27T22:00:17.720Z,30.90
2017-08-27T22:02:45.518Z,30.80
2017-08-27T22:05:13.260Z,30.80
2017-08-27T22:07:41.045Z,30.80
2017-08-27T22:10:08.835Z,30.80
2017-08-27T22:12:36.543Z,30.80
2017-08-27T22:15:04.321Z,30.80
2017-08-27T22:17:32.060Z,30.90
2017-08-27T22:19:59.795Z,30.80
2017-08-27T22:22:27.530Z,30.80
2017-08-27T22:24:55.301Z,30.70
2017-08-27T22:27:23.025Z,30.70
2017-08-27T22:29:50.816Z,30.70
2017-08-27T22:32:18.530Z,30.70
2017-08-27T22:34:46.258Z,30.70
2017-08-27T22:37:13.981Z,30.70
2017-08-27T22:39:41.778Z,30.70
2017-08-27T22:42:09.496Z,30.70
2017-08-27T22:44:37.283Z,30.70
2017-08-27T22:47:05.030Z,30.80
2017-08-27T22:49:32.817Z,30.70
2017-08-27T22:52:00.611Z,30.70
2017-08-27T22:54:28.341Z,30.70
2017-08-27T22:56:56.056Z,30.70
2017-08-27T22:59:23.845Z,30.70
2017-08-27T23:01:51.636Z,30.70
2017-08-27T23:04:19.425Z,30.70
2017-08-27T23:06:47.213Z,30.60
2017-08-27T23:09:15.044Z,30.60
2017-08-27T23:11:42.840Z,30.50
2017-08-27T23:14:10.627Z,30.50
2017-08-27T23:16:38.446Z,30.50
2017-08-27T23:19:06.178Z,30.50
2017-08-27T23:21:33.971Z,30.60
2017-08-27T23:24:01.695Z,30.50
2017-08-27T23:26:29.436Z,30.50
2017-08-27T23:28:57.152Z,30.50
2017-08-27T23:31:24.958Z,30.50
2017-08-27T23:33:52.675Z,30.50
2017-08-27T23:36:20.460Z,30.50
2017-08-27T23:38:48.316Z,30.50
2017-08-27T23:41:16.042Z,30.40
2017-08-27T23:43:44.614Z,30.40
2017-08-27T23:46:12.428Z,30.30
2017-08-27T23:48:40.209Z,30.30
2017-08-27T23:51:07.944Z,30.40
2017-08-27T23:53:35.697Z,30.40
2017-08-27T23:56:03.467Z,30.30
2017-08-27T23:58:31.185Z,30.30
